Time;durP1;ratioP1;P1;durP2;ratioP2;P2;SDS_P1;SDS_P2;PMS_P1;PMS_P2;Temp;Humidity;BMP_temperature;BMP_pressure;BME280_temperature;BME280_humidity;BME280_pressure;Samples;Min_cycle;Max_cycle;Signal;HPM_P1;HPM_P2
2022/03/18 00:02:21;;;;;;;12.07;7.40;;;-3.30;87.60;;;;;;5078183;28;20024;-87
2022/03/18 00:04:48;;;;;;;16.20;8.57;;;-3.30;87.20;;;;;;5078091;28;20035;-85
2022/03/18 00:07:15;;;;;;;14.25;7.60;;;-3.30;87.60;;;;;;5078051;28;20020;-86
2022/03/18 00:09:41;;;;;;;12.88;7.72;;;-3.30;87.80;;;;;;5077670;28;20474;-86
2022/03/18 00:12:08;;;;;;;14.73;7.53;;;-3.30;88.40;;;;;;5095923;28;20028;-86
2022/03/18 00:14:34;;;;;;;13.18;7.53;;;-3.30;88.00;;;;;;5077987;28;20027;-87
2022/03/18 00:17:00;;;;;;;16.05;8.07;;;-3.30;87.80;;;;;;5077484;28;20024;-87
2022/03/18 00:19:27;;;;;;;11.95;7.32;;;-3.30;87.90;;;;;;5077790;28;20047;-86
2022/03/18 00:22:00;;;;;;;14.27;7.93;;;-3.30;87.80;;;;;;5095936;28;20026;-87
2022/03/18 00:24:26;;;;;;;14.80;7.50;;;-3.40;87.80;;;;;;5077632;28;20088;-87
2022/03/18 00:26:51;;;;;;;16.85;8.23;;;-3.40;88.00;;;;;;5095712;28;20111;-87
2022/03/18 00:29:17;;;;;;;14.60;7.70;;;-3.40;88.10;;;;;;5077429;28;20031;-87
2022/03/18 00:31:44;;;;;;;18.27;8.25;;;-3.40;88.40;;;;;;5095927;28;20080;-87
2022/03/18 00:34:10;;;;;;;13.52;8.02;;;-3.50;88.60;;;;;;5077556;28;20020;-86
2022/03/18 00:36:36;;;;;;;11.95;7.22;;;-3.50;88.80;;;;;;5077491;28;20024;-87
2022/03/18 00:39:03;;;;;;;15.27;8.00;;;-3.60;88.70;;;;;;5077618;28;20470;-87
2022/03/18 00:41:28;;;;;;;13.95;7.80;;;-3.60;88.80;;;;;;5077459;28;20043;-86
2022/03/18 00:43:54;;;;;;;15.73;9.45;;;-3.50;89.00;;;;;;5095624;28;20470;-86
2022/03/18 00:46:22;;;;;;;14.20;7.85;;;-3.60;89.20;;;;;;5077279;28;20024;-86
2022/03/18 00:54:16;;;;;;;12.18;7.45;;;-3.60;89.30;;;;;;5095543;28;20501;-87
2022/03/18 00:56:42;;;;;;;14.93;9.27;;;-3.70;89.50;;;;;;5077047;28;20020;-87
2022/03/18 00:59:09;;;;;;;14.40;8.20;;;-3.80;89.70;;;;;;5076716;28;20035;-86
2022/03/18 01:01:35;;;;;;;12.20;7.68;;;-3.80;89.60;;;;;;5077145;28;20028;-87
2022/03/18 01:04:01;;;;;;;14.32;7.53;;;-3.80;89.70;;;;;;5076857;28;20390;-86
2022/03/18 01:06:28;;;;;;;14.43;7.45;;;-3.80;89.50;;;;;;5076882;28;20024;-86
2022/03/18 01:08:53;;;;;;;14.23;7.93;;;-3.80;89.30;;;;;;5076753;28;20040;-87
2022/03/18 01:11:19;;;;;;;14.45;7.32;;;-3.90;88.80;;;;;;5077053;28;20031;-86
2022/03/18 01:13:45;;;;;;;9.55;6.90;;;-3.90;89.20;;;;;;5094960;28;20382;-86
2022/03/18 01:16:11;;;;;;;14.43;7.60;;;-4.00;88.90;;;;;;5094988;28;20035;-86
2022/03/18 01:18:36;;;;;;;16.38;7.50;;;-4.00;89.90;;;;;;5076775;28;20020;-86
2022/03/18 01:21:03;;;;;;;12.40;7.88;;;-4.00;89.80;;;;;;5076749;28;20417;-86
2022/03/18 01:23:28;;;;;;;12.75;7.50;;;-4.00;89.20;;;;;;5076849;28;20069;-87
2022/03/18 01:25:55;;;;;;;16.25;7.45;;;-4.00;88.50;;;;;;5076755;28;20020;-87
2022/03/18 01:28:22;;;;;;;13.13;7.55;;;-4.00;88.90;;;;;;5076382;28;20017;-86
2022/03/18 01:30:47;;;;;;;14.35;8.00;;;-4.10;89.50;;;;;;5094513;28;20111;-86
2022/03/18 01:33:13;;;;;;;17.75;8.40;;;-4.10;89.80;;;;;;5076776;28;20446;-86
2022/03/18 01:35:39;;;;;;;12.95;7.93;;;-4.10;89.80;;;;;;5077109;28;20052;-86
2022/03/18 01:38:04;;;;;;;13.15;8.00;;;-4.10;89.90;;;;;;5077161;28;20085;-86
2022/03/18 01:40:31;;;;;;;15.73;8.57;;;-4.10;90.00;;;;;;5076553;28;20421;-86
2022/03/18 01:42:56;;;;;;;15.43;8.20;;;-4.10;90.30;;;;;;5076472;28;20020;-87
2022/03/18 01:45:23;;;;;;;11.68;7.38;;;-4.10;90.30;;;;;;5076669;28;20035;-86
2022/03/18 01:47:48;;;;;;;14.80;6.68;;;-4.10;90.40;;;;;;5076393;28;20490;-86
2022/03/18 01:50:15;;;;;;;14.95;7.70;;;-4.10;90.50;;;;;;5076520;28;20028;-86
2022/03/18 01:52:42;;;;;;;16.63;7.97;;;-4.20;91.00;;;;;;5094474;28;20035;-86
2022/03/18 01:55:08;;;;;;;13.95;7.13;;;-4.20;90.90;;;;;;5076528;28;20016;-86
2022/03/18 01:57:33;;;;;;;12.07;7.47;;;-4.20;90.80;;;;;;5076297;28;20024;-86
2022/03/18 02:00:00;;;;;;;14.88;7.85;;;-4.20;90.90;;;;;;5076236;28;20387;-86
2022/03/18 02:02:26;;;;;;;13.65;7.78;;;-4.20;91.30;;;;;;5076238;28;20070;-86
2022/03/18 02:04:52;;;;;;;13.32;7.22;;;-4.20;91.00;;;;;;5076335;28;20027;-86
2022/03/18 02:07:18;;;;;;;14.68;7.82;;;-4.20;90.60;;;;;;5094034;28;20035;-86
2022/03/18 02:09:44;;;;;;;18.98;8.48;;;-4.30;90.70;;;;;;5093953;28;20123;-86
2022/03/18 02:12:11;;;;;;;12.05;7.55;;;-4.20;90.90;;;;;;5076223;28;20478;-86
2022/03/18 02:14:44;;;;;;;15.48;7.93;;;-4.30;91.00;;;;;;5076119;28;20028;-86
2022/03/18 02:17:13;;;;;;;13.40;7.90;;;-4.30;91.00;;;;;;5076351;28;20056;-86
2022/03/18 02:19:40;;;;;;;13.45;7.07;;;-4.30;91.00;;;;;;5076097;28;20127;-85
2022/03/18 02:22:19;;;;;;;13.35;7.70;;;-4.20;91.30;;;;;;5076225;28;20559;-86
2022/03/18 02:24:47;;;;;;;15.18;7.80;;;-4.20;91.20;;;;;;5076102;28;20073;-86
2022/03/18 02:27:13;;;;;;;10.82;7.18;;;-4.30;91.30;;;;;;5076213;28;20024;-86
2022/03/18 02:29:39;;;;;;;15.43;8.07;;;-4.30;91.50;;;;;;5076000;28;20453;-86
2022/03/18 02:32:07;;;;;;;12.23;7.90;;;-4.30;91.50;;;;;;5094117;28;20017;-86
2022/03/18 02:34:34;;;;;;;12.73;7.43;;;-4.30;91.50;;;;;;5076101;28;20020;-86
2022/03/18 02:37:00;;;;;;;16.42;8.88;;;-4.40;91.80;;;;;;5094198;28;20356;-86
2022/03/18 02:39:26;;;;;;;12.98;7.38;;;-4.40;91.70;;;;;;5095542;28;20067;-86
2022/03/18 02:41:52;;;;;;;13.55;7.50;;;-4.40;91.60;;;;;;5097975;28;20497;-86
2022/03/18 02:44:18;;;;;;;15.02;8.23;;;-4.40;91.70;;;;;;5079699;28;20116;-86
2022/03/18 02:46:44;;;;;;;11.13;7.20;;;-4.40;91.70;;;;;;5097924;28;20101;-86
2022/03/18 02:49:09;;;;;;;16.70;8.35;;;-4.40;91.60;;;;;;5079438;28;20115;-86
2022/03/18 02:51:37;;;;;;;13.82;7.75;;;-4.40;91.50;;;;;;5079895;28;20557;-87
2022/03/18 02:54:05;;;;;;;12.45;7.30;;;-4.40;91.40;;;;;;5079438;28;20024;-87
2022/03/18 02:56:31;;;;;;;12.85;7.38;;;-4.50;91.40;;;;;;5079443;28;20027;-85
2022/03/18 02:58:58;;;;;;;15.32;8.57;;;-4.40;91.40;;;;;;5079639;28;20174;-86
2022/03/18 03:01:25;;;;;;;16.55;8.82;;;-4.50;91.50;;;;;;5079309;28;20027;-86
2022/03/18 03:03:51;;;;;;;14.30;8.10;;;-4.50;91.80;;;;;;5097255;28;20024;-86
2022/03/18 03:09:01;;;;;;;13.60;7.78;;;-4.50;91.90;;;;;;5096960;28;20137;-85
2022/03/18 03:11:26;;;;;;;14.18;7.72;;;-4.50;91.80;;;;;;5079177;28;20059;-86
2022/03/18 03:13:52;;;;;;;14.38;7.68;;;-4.50;91.70;;;;;;5079002;28;20107;-86
2022/03/18 03:16:21;;;;;;;11.93;7.60;;;-4.50;91.60;;;;;;5079062;28;20031;-86
2022/03/18 03:18:47;;;;;;;14.93;8.13;;;-4.50;92.00;;;;;;5096982;28;20027;-86
2022/03/18 03:21:14;;;;;;;14.73;7.82;;;-4.60;91.90;;;;;;5079723;28;20028;-86
2022/03/18 03:23:40;;;;;;;14.45;7.70;;;-4.60;91.80;;;;;;5078801;28;20024;-86
2022/03/18 03:26:06;;;;;;;18.75;8.10;;;-4.70;92.00;;;;;;5078886;28;20028;-86
2022/03/18 03:28:31;;;;;;;16.95;7.78;;;-4.70;92.00;;;;;;5078731;28;20020;-86
2022/03/18 03:30:57;;;;;;;14.88;8.93;;;-4.60;92.00;;;;;;5078792;28;20127;-86
2022/03/18 03:33:23;;;;;;;15.85;8.60;;;-4.60;92.10;;;;;;5096805;28;20028;-86
2022/03/18 03:35:48;;;;;;;15.52;8.43;;;-4.70;92.10;;;;;;5096751;28;20020;-85
2022/03/18 03:38:14;;;;;;;13.13;7.28;;;-4.70;92.50;;;;;;5078660;28;20039;-86
2022/03/18 03:40:41;;;;;;;15.98;7.55;;;-4.70;92.50;;;;;;5078491;28;20026;-86
2022/03/18 03:43:08;;;;;;;16.35;7.93;;;-4.70;92.00;;;;;;5078498;28;20534;-86
2022/03/18 03:45:35;;;;;;;14.55;7.47;;;-4.70;91.80;;;;;;5078505;28;20058;-86
2022/03/18 03:48:01;;;;;;;14.77;7.97;;;-4.70;92.00;;;;;;5078410;28;20020;-86
2022/03/18 03:50:27;;;;;;;18.23;8.65;;;-4.70;92.00;;;;;;5077534;28;20027;-85
2022/03/18 03:52:53;;;;;;;15.73;8.05;;;-4.70;92.40;;;;;;5078337;28;20119;-86
2022/03/18 03:55:19;;;;;;;14.65;7.72;;;-4.70;92.50;;;;;;5078132;28;20467;-86
2022/03/18 03:57:45;;;;;;;15.82;7.97;;;-4.70;92.50;;;;;;5096045;28;20103;-86
2022/03/18 04:00:11;;;;;;;16.30;8.20;;;-4.70;92.50;;;;;;5096229;28;20060;-87
2022/03/18 04:02:37;;;;;;;14.13;6.97;;;-4.70;92.60;;;;;;5078353;28;20352;-86
2022/03/18 04:05:07;;;;;;;12.98;7.97;;;-4.70;92.50;;;;;;5078051;28;20020;-86
2022/03/18 04:07:36;;;;;;;13.87;7.80;;;-4.80;92.50;;;;;;5078047;28;20024;-86
2022/03/18 04:10:04;;;;;;;17.08;7.95;;;-4.80;92.50;;;;;;5095838;28;20478;-86
2022/03/18 04:12:30;;;;;;;15.43;8.93;;;-4.80;92.70;;;;;;5095920;28;20032;-86
2022/03/18 04:14:55;;;;;;;19.17;8.52;;;-4.80;92.80;;;;;;5077619;28;20036;-86
2022/03/18 04:17:22;;;;;;;15.82;8.52;;;-4.80;93.00;;;;;;5078261;28;20068;-86
2022/03/18 04:19:48;;;;;;;16.17;8.40;;;-4.70;92.90;;;;;;5077733;28;20491;-86
2022/03/18 04:22:13;;;;;;;14.63;8.18;;;-4.80;92.90;;;;;;5095725;28;20108;-86
2022/03/18 04:24:39;;;;;;;14.68;8.02;;;-4.80;92.90;;;;;;5077647;28;20024;-86
2022/03/18 04:27:05;;;;;;;15.95;8.80;;;-4.80;93.10;;;;;;5077384;28;20095;-85
2022/03/18 04:29:31;;;;;;;16.20;7.70;;;-4.80;92.80;;;;;;5077641;28;20024;-86
2022/03/18 04:31:57;;;;;;;22.83;9.50;;;-4.80;92.80;;;;;;5095898;28;20024;-86
2022/03/18 04:34:23;;;;;;;14.15;7.93;;;-4.80;92.90;;;;;;5077502;28;20096;-85
2022/03/18 04:36:48;;;;;;;13.55;8.35;;;-4.90;92.90;;;;;;5077267;28;20035;-85
2022/03/18 04:39:14;;;;;;;16.73;8.15;;;-4.80;93.00;;;;;;5077142;28;20035;-85
2022/03/18 04:41:40;;;;;;;15.32;8.40;;;-4.80;92.90;;;;;;5077340;28;20028;-86
2022/03/18 04:44:05;;;;;;;13.07;8.43;;;-4.80;92.70;;;;;;5077224;28;20535;-86
2022/03/18 04:46:31;;;;;;;11.88;7.53;;;-4.80;93.00;;;;;;5095570;28;20028;-85
2022/03/18 04:49:00;;;;;;;15.15;8.27;;;-4.80;92.70;;;;;;5077209;28;20136;-85
2022/03/18 04:51:26;;;;;;;15.57;8.23;;;-4.70;92.50;;;;;;5077450;28;20027;-86
2022/03/18 04:53:52;;;;;;;14.82;7.80;;;-4.70;92.40;;;;;;5094937;28;20028;-86
2022/03/18 04:59:03;;;;;;;14.80;7.93;;;-4.70;92.60;;;;;;5095386;28;20504;-86
2022/03/18 05:01:29;;;;;;;17.80;9.07;;;-4.70;92.50;;;;;;5076727;28;20390;-87
2022/03/18 05:03:55;;;;;;;16.67;7.65;;;-4.70;92.60;;;;;;5075990;28;20043;-86
2022/03/18 05:06:21;;;;;;;18.02;9.38;;;-4.70;92.40;;;;;;5094706;28;20059;-86
2022/03/18 05:08:46;;;;;;;15.77;8.25;;;-4.70;92.60;;;;;;5076760;28;20046;-86
2022/03/18 05:11:15;;;;;;;13.57;8.30;;;-4.60;92.60;;;;;;5076282;28;20106;-87
2022/03/18 05:13:42;;;;;;;13.82;8.20;;;-4.60;92.50;;;;;;5095179;28;20016;-86
2022/03/18 05:16:07;;;;;;;14.25;8.35;;;-4.50;92.50;;;;;;5076049;28;20025;-86
2022/03/18 05:18:33;;;;;;;18.52;8.52;;;-4.50;92.20;;;;;;5094133;28;20024;-86
2022/03/18 05:20:58;;;;;;;16.35;8.65;;;-4.40;91.50;;;;;;5076559;28;20024;-86
2022/03/18 05:23:24;;;;;;;16.63;8.05;;;-4.50;92.00;;;;;;5076613;28;20036;-86
2022/03/18 05:25:49;;;;;;;14.98;8.25;;;-4.40;91.90;;;;;;5094646;28;20055;-86
2022/03/18 05:28:17;;;;;;;15.43;7.82;;;-4.30;91.60;;;;;;5076546;28;20381;-86
2022/03/18 05:30:43;;;;;;;18.35;8.40;;;-4.30;91.30;;;;;;5076540;28;20027;-86
2022/03/18 05:33:09;;;;;;;13.07;8.27;;;-4.20;91.70;;;;;;5075935;28;20081;-87
2022/03/18 05:35:35;;;;;;;11.88;7.43;;;-4.10;91.60;;;;;;5076473;28;20024;-86
2022/03/18 05:38:00;;;;;;;15.82;7.68;;;-4.10;91.60;;;;;;5094589;28;20051;-86
2022/03/18 05:40:26;;;;;;;15.27;7.43;;;-4.00;91.30;;;;;;5076039;28;20020;-86
2022/03/18 05:42:52;;;;;;;14.50;7.60;;;-4.00;91.10;;;;;;5076470;28;20055;-86
2022/03/18 05:45:18;;;;;;;14.43;7.63;;;-4.00;91.00;;;;;;5076632;28;20032;-87
2022/03/18 05:47:44;;;;;;;24.30;8.85;;;-3.90;90.80;;;;;;5094246;28;20020;-87
2022/03/18 05:50:15;;;;;;;19.95;9.60;;;-3.90;90.70;;;;;;5076318;28;20161;-86
2022/03/18 05:52:40;;;;;;;29.00;13.82;;;-3.90;90.40;;;;;;5076365;28;20024;-86
2022/03/18 05:55:06;;;;;;;13.98;8.90;;;-3.90;90.60;;;;;;5076229;28;20072;-86
2022/03/18 05:57:32;;;;;;;45.08;21.05;;;-3.90;90.30;;;;;;5094490;28;20020;-87
2022/03/18 05:59:58;;;;;;;35.05;17.45;;;-3.80;90.50;;;;;;5076319;28;20024;-86
2022/03/18 06:02:25;;;;;;;26.60;12.32;;;-3.80;90.20;;;;;;5076046;28;20086;-87
2022/03/18 06:04:51;;;;;;;22.33;11.32;;;-3.80;90.50;;;;;;5076254;28;20064;-85
2022/03/18 06:07:17;;;;;;;26.88;12.77;;;-3.70;90.30;;;;;;5093928;28;20023;-88
2022/03/18 06:12:28;;;;;;;27.50;11.43;;;-3.60;89.90;;;;;;5094718;28;20104;-86
2022/03/18 17:20:17;;;;;;;13.57;7.35;;;-1.30;86.30;;;;;;5091380;28;20366;-92
2022/03/18 17:22:42;;;;;;;14.10;7.75;;;-1.30;87.30;;;;;;5090792;28;20090;-92
2022/03/18 17:25:08;;;;;;;17.77;7.55;;;-1.30;87.40;;;;;;5090689;28;20385;-96
2022/03/18 17:27:34;;;;;;;13.45;6.95;;;-1.20;87.30;;;;;;5091581;28;20032;-92
2022/03/18 17:30:00;;;;;;;10.30;6.70;;;-1.20;87.60;;;;;;5090851;28;20028;-90
2022/03/18 17:32:25;;;;;;;13.38;7.20;;;-1.20;88.10;;;;;;5090432;28;20058;-90
2022/03/18 17:34:52;;;;;;;13.90;7.60;;;-1.20;88.20;;;;;;5089307;28;20032;-89
2022/03/18 17:37:18;;;;;;;12.07;7.13;;;-1.20;88.10;;;;;;5089610;28;20021;-91
2022/03/18 17:39:43;;;;;;;13.15;7.47;;;-1.10;88.00;;;;;;5089449;28;20230;-90
2022/03/18 17:42:11;;;;;;;15.23;8.07;;;-1.10;88.20;;;;;;5089538;28;20028;-90
2022/03/18 17:44:37;;;;;;;10.57;6.95;;;-1.10;88.40;;;;;;5089105;28;20028;-90
2022/03/18 17:47:05;;;;;;;11.50;7.00;;;-1.10;88.40;;;;;;5089636;28;20042;-90
2022/03/18 17:49:31;;;;;;;12.02;7.13;;;-1.10;88.80;;;;;;5090127;28;20104;-90
2022/03/18 17:51:57;;;;;;;11.80;6.88;;;-1.10;88.40;;;;;;5090387;28;20062;-89
2022/03/18 17:54:23;;;;;;;14.55;8.00;;;-1.10;88.40;;;;;;5089995;28;20028;-90
2022/03/18 17:56:50;;;;;;;16.23;8.25;;;-1.10;88.40;;;;;;5090320;28;20456;-89
2022/03/18 17:59:16;;;;;;;12.80;7.32;;;-1.10;88.50;;;;;;5089820;28;20021;-89
2022/03/18 18:01:43;;;;;;;13.82;7.45;;;-1.20;88.50;;;;;;5089927;28;20020;-90
2022/03/18 18:04:09;;;;;;;12.10;6.75;;;-1.10;88.60;;;;;;5089810;28;20024;-90
2022/03/18 18:06:36;;;;;;;13.45;7.20;;;-1.20;88.40;;;;;;5090962;28;20505;-90
2022/03/18 18:09:03;;;;;;;11.07;7.20;;;-1.20;88.60;;;;;;5090217;28;20025;-90
2022/03/18 18:11:32;;;;;;;14.40;7.22;;;-1.20;88.80;;;;;;5089773;28;20497;-89
2022/03/18 18:14:04;;;;;;;15.50;7.70;;;-1.30;89.00;;;;;;5090329;28;20066;-91
2022/03/18 18:16:31;;;;;;;13.90;8.07;;;-1.30;89.20;;;;;;5089678;28;20024;-90
2022/03/18 18:18:57;;;;;;;18.42;8.60;;;-1.20;89.30;;;;;;5089684;28;20240;-90
2022/03/18 18:24:08;;;;;;;13.07;7.97;;;-1.30;89.50;;;;;;5091010;28;20027;-89
2022/03/18 18:26:34;;;;;;;11.15;7.32;;;-1.30;89.80;;;;;;5089299;28;20403;-89
2022/03/18 18:28:59;;;;;;;14.75;8.18;;;-1.30;90.00;;;;;;5089555;28;20032;-90
2022/03/18 18:31:25;;;;;;;16.17;8.48;;;-1.30;90.00;;;;;;5076992;28;20547;-90
2022/03/18 18:33:52;;;;;;;17.73;8.68;;;-1.30;90.10;;;;;;5075735;28;20035;-90
2022/03/18 18:36:19;;;;;;;15.52;8.82;;;-1.30;90.00;;;;;;5075857;28;20028;-90
2022/03/18 18:38:46;;;;;;;17.27;9.27;;;-1.30;90.00;;;;;;5076095;28;20028;-91
2022/03/18 18:41:12;;;;;;;13.02;7.90;;;-1.30;90.00;;;;;;5075672;28;20025;-90
2022/03/18 18:43:42;;;;;;;15.40;8.73;;;-1.30;90.00;;;;;;5075743;28;20020;-90
2022/03/18 18:46:09;;;;;;;15.00;7.53;;;-1.30;90.00;;;;;;5075485;28;20025;-90
2022/03/18 18:48:35;;;;;;;16.27;7.32;;;-1.40;90.00;;;;;;5075414;28;20261;-90
2022/03/18 18:51:03;;;;;;;16.88;7.68;;;-1.30;90.00;;;;;;5075929;28;20467;-90
2022/03/18 18:53:32;;;;;;;19.85;8.95;;;-1.30;90.10;;;;;;5075692;28;20078;-89
2022/03/18 18:55:57;;;;;;;16.05;8.35;;;-1.40;90.20;;;;;;5075732;28;20037;-89
2022/03/18 18:58:23;;;;;;;22.77;8.45;;;-1.40;90.10;;;;;;5075439;28;20032;-89
2022/03/18 19:00:50;;;;;;;21.38;8.82;;;-1.40;90.20;;;;;;5075427;28;20033;-89
2022/03/18 19:03:18;;;;;;;17.27;8.55;;;-1.40;90.30;;;;;;5075163;28;20017;-89
2022/03/18 19:05:44;;;;;;;14.75;7.35;;;-1.40;90.40;;;;;;5075360;28;20387;-89
2022/03/18 19:08:10;;;;;;;16.42;7.93;;;-1.40;90.50;;;;;;5075673;28;20039;-89
2022/03/18 19:10:36;;;;;;;16.60;8.73;;;-1.40;90.50;;;;;;5075345;28;20025;-88
2022/03/18 19:13:05;;;;;;;13.52;7.90;;;-1.40;90.90;;;;;;5075196;28;20032;-88
2022/03/18 19:15:32;;;;;;;16.23;9.13;;;-1.40;90.60;;;;;;5075175;28;20051;-88
2022/03/18 19:18:00;;;;;;;15.70;8.25;;;-1.40;90.80;;;;;;5074884;28;20112;-89
2022/03/18 19:20:27;;;;;;;13.55;7.68;;;-1.40;90.70;;;;;;5058270;28;20048;-89
2022/03/18 19:22:52;;;;;;;16.13;7.88;;;-1.40;90.70;;;;;;5058019;28;20021;-90
2022/03/18 19:25:18;;;;;;;16.75;8.43;;;-1.40;90.50;;;;;;5057714;28;20023;-89
2022/03/18 19:27:47;;;;;;;21.27;8.65;;;-1.40;90.40;;;;;;5058068;28;20028;-90
2022/03/18 19:30:13;;;;;;;17.10;9.07;;;-1.40;90.60;;;;;;5057669;28;20429;-90
2022/03/18 19:32:42;;;;;;;14.57;8.02;;;-1.40;90.70;;;;;;5057736;28;20027;-90
2022/03/18 19:35:10;;;;;;;17.70;9.30;;;-1.40;90.70;;;;;;5057721;28;20064;-90
2022/03/18 19:37:37;;;;;;;18.67;8.88;;;-1.40;90.80;;;;;;5057416;28;20048;-89
2022/03/18 19:40:05;;;;;;;16.98;8.65;;;-1.40;90.80;;;;;;5057504;28;20055;-89
2022/03/18 19:42:31;;;;;;;18.98;8.93;;;-1.50;90.90;;;;;;5056844;28;20017;-89
2022/03/18 19:44:57;;;;;;;16.52;8.27;;;-1.40;90.90;;;;;;5075199;28;20111;-90
2022/03/18 19:47:23;;;;;;;21.90;11.80;;;-1.40;90.90;;;;;;5057443;28;20055;-90
2022/03/18 19:49:49;;;;;;;31.83;15.98;;;-1.40;90.90;;;;;;5057679;28;20071;-89
2022/03/18 19:52:16;;;;;;;23.08;11.98;;;-1.50;90.90;;;;;;5063624;28;20031;-90
2022/03/18 19:54:43;;;;;;;25.00;13.88;;;-1.50;90.90;;;;;;5067006;28;20023;-89
2022/03/18 20:02:37;;;;;;;34.28;18.25;;;-1.50;91.10;;;;;;5073167;28;20540;-89
2022/03/18 20:05:03;;;;;;;30.75;15.23;;;-1.60;91.30;;;;;;5056763;28;20115;-90
2022/03/18 20:07:29;;;;;;;29.80;15.35;;;-1.60;91.40;;;;;;5057190;28;20111;-89
2022/03/18 20:09:55;;;;;;;27.17;13.55;;;-1.60;91.50;;;;;;5074576;28;20105;-89
2022/03/18 20:12:21;;;;;;;28.23;13.70;;;-1.60;91.70;;;;;;5057017;28;20016;-89
2022/03/18 20:14:52;;;;;;;22.75;11.55;;;-1.60;91.70;;;;;;5057272;28;20067;-88
2022/03/18 20:17:21;;;;;;;20.10;10.10;;;-1.60;91.30;;;;;;5059883;28;20386;-89
2022/03/18 20:19:47;;;;;;;30.42;13.38;;;-1.60;91.10;;;;;;5068949;28;20064;-90
2022/03/18 20:22:13;;;;;;;31.55;14.32;;;-1.60;90.90;;;;;;5073525;28;20093;-90
2022/03/18 20:24:39;;;;;;;18.25;9.00;;;-1.60;91.00;;;;;;5073323;28;20470;-90
2022/03/18 20:27:05;;;;;;;36.30;17.52;;;-1.60;91.10;;;;;;5073379;28;20078;-90
2022/03/18 20:29:31;;;;;;;56.20;23.17;;;-1.60;91.20;;;;;;5073300;28;20031;-90
2022/03/18 20:31:57;;;;;;;50.35;23.75;;;-1.60;91.10;;;;;;5073128;28;20054;-89
2022/03/18 20:34:25;;;;;;;23.70;11.65;;;-1.60;91.50;;;;;;5074097;28;20020;-89
2022/03/18 20:36:52;;;;;;;29.95;16.63;;;-1.60;91.30;;;;;;5070247;28;20078;-89
2022/03/18 20:39:18;;;;;;;30.55;18.45;;;-1.60;91.30;;;;;;5073037;28;20016;-89
2022/03/18 20:41:44;;;;;;;28.63;15.30;;;-1.70;91.30;;;;;;5074079;28;20020;-89
2022/03/18 20:44:12;;;;;;;25.02;12.82;;;-1.70;91.50;;;;;;5073088;28;20021;-89
2022/03/18 20:46:38;;;;;;;19.40;10.50;;;-1.70;91.40;;;;;;5072631;28;20017;-89
2022/03/18 20:49:06;;;;;;;23.45;12.45;;;-1.70;91.50;;;;;;5073461;28;20341;-89
2022/03/18 20:51:32;;;;;;;21.67;10.18;;;-1.80;91.60;;;;;;5070602;28;20379;-90
2022/03/18 20:53:58;;;;;;;19.25;11.02;;;-1.80;91.70;;;;;;5073230;28;20048;-89
2022/03/18 20:56:24;;;;;;;18.63;10.20;;;-1.80;91.80;;;;;;5073323;28;20365;-89
2022/03/18 20:58:49;;;;;;;18.67;9.30;;;-1.80;91.80;;;;;;5073221;28;20029;-90
2022/03/18 21:01:18;;;;;;;23.17;11.63;;;-1.90;92.00;;;;;;5074209;28;20043;-89
2022/03/18 21:03:44;;;;;;;39.20;20.33;;;-1.90;92.10;;;;;;5073665;28;20020;-89
2022/03/18 21:06:10;;;;;;;22.20;10.40;;;-1.90;92.30;;;;;;5074484;28;20070;-89
2022/03/18 21:08:35;;;;;;;42.88;19.70;;;-2.00;92.40;;;;;;5073364;28;20024;-90
2022/03/18 21:11:01;;;;;;;66.70;32.05;;;-2.00;92.50;;;;;;5073133;28;20055;-89
2022/03/18 21:13:26;;;;;;;77.00;34.63;;;-2.00;92.70;;;;;;5073368;28;20028;-90
2022/03/18 21:15:54;;;;;;;27.92;14.90;;;-1.90;92.80;;;;;;5073081;28;20035;-90
2022/03/18 21:18:22;;;;;;;27.98;14.13;;;-1.90;92.60;;;;;;5073104;28;20054;-89
2022/03/18 21:20:52;;;;;;;15.93;9.05;;;-1.90;92.80;;;;;;5073152;28;20020;-89
2022/03/18 21:23:25;;;;;;;19.45;10.93;;;-2.00;92.80;;;;;;5073114;28;20379;-89
2022/03/18 21:31:20;;;;;;;19.23;10.73;;;-2.10;93.30;;;;;;5074930;28;20078;-90
2022/03/18 21:33:46;;;;;;;17.60;10.00;;;-2.10;93.40;;;;;;5073341;28;20029;-90
2022/03/18 21:36:12;;;;;;;20.88;10.18;;;-2.10;93.60;;;;;;5073231;28;20036;-89
2022/03/18 21:38:39;;;;;;;19.80;11.88;;;-2.10;93.90;;;;;;5072910;28;20025;-89
2022/03/18 21:41:05;;;;;;;17.50;9.77;;;-2.10;93.80;;;;;;5073243;28;20090;-89
2022/03/18 21:43:31;;;;;;;24.08;12.25;;;-2.10;93.70;;;;;;5073604;28;20117;-89
2022/03/18 21:45:59;;;;;;;18.92;10.52;;;-2.10;94.00;;;;;;5073004;28;20463;-89
2022/03/18 21:48:25;;;;;;;23.90;12.07;;;-2.10;94.10;;;;;;5074032;28;20056;-89
2022/03/18 21:50:53;;;;;;;35.47;15.48;;;-2.10;93.90;;;;;;5073042;28;20021;-89
2022/03/18 21:53:19;;;;;;;26.63;13.18;;;-2.20;94.10;;;;;;5072926;28;20052;-89
2022/03/18 21:55:45;;;;;;;25.15;12.68;;;-2.20;93.90;;;;;;5072977;28;20050;-89
2022/03/18 21:58:11;;;;;;;23.08;11.07;;;-2.20;94.00;;;;;;5072616;28;20112;-89
2022/03/18 22:00:37;;;;;;;21.45;10.50;;;-2.20;94.00;;;;;;5074174;28;20108;-89
2022/03/18 22:03:03;;;;;;;22.48;11.00;;;-2.30;93.90;;;;;;5072858;28;20021;-89
2022/03/18 22:05:28;;;;;;;25.83;13.00;;;-2.30;94.00;;;;;;5075353;28;20375;-89
2022/03/18 22:07:56;;;;;;;74.80;34.25;;;-2.30;94.30;;;;;;5076497;28;20020;-89
2022/03/18 22:10:23;;;;;;;32.63;16.58;;;-2.40;94.30;;;;;;5076738;28;20475;-89
2022/03/18 22:12:49;;;;;;;46.78;23.42;;;-2.40;94.90;;;;;;5076592;28;20025;-89
2022/03/18 22:15:15;;;;;;;36.67;19.58;;;-2.30;95.10;;;;;;5076719;28;20024;-89
2022/03/18 22:17:40;;;;;;;17.38;10.40;;;-2.40;95.30;;;;;;5076392;28;20090;-89
2022/03/18 22:20:07;;;;;;;18.20;9.73;;;-2.40;95.40;;;;;;5075990;28;20070;-89
2022/03/18 22:22:41;;;;;;;16.15;8.27;;;-2.40;95.40;;;;;;5076401;28;20023;-89
2022/03/18 22:25:11;;;;;;;16.60;9.20;;;-2.40;95.20;;;;;;5077543;28;20585;-89
2022/03/18 22:27:37;;;;;;;14.85;8.68;;;-2.40;95.40;;;;;;5077399;28;20047;-89
2022/03/18 22:30:03;;;;;;;16.40;8.25;;;-2.40;95.30;;;;;;5076364;28;20395;-89
2022/03/18 22:32:29;;;;;;;18.30;9.07;;;-2.50;95.20;;;;;;5076887;28;20056;-89
2022/03/18 22:34:54;;;;;;;15.88;8.82;;;-2.50;95.20;;;;;;5075827;28;20020;-89
2022/03/18 22:37:20;;;;;;;16.55;9.30;;;-2.50;95.20;;;;;;5076120;28;20029;-89
2022/03/18 22:39:46;;;;;;;13.30;8.73;;;-2.50;95.60;;;;;;5075805;28;20028;-89
2022/03/18 22:42:12;;;;;;;15.77;8.93;;;-2.60;96.00;;;;;;5076040;28;20025;-89
2022/03/18 22:44:37;;;;;;;14.55;8.13;;;-2.60;96.00;;;;;;5075815;28;20025;-89
2022/03/18 22:47:03;;;;;;;15.02;8.65;;;-2.60;96.30;;;;;;5075732;28;20021;-89
2022/03/18 22:49:29;;;;;;;14.68;8.05;;;-2.60;96.40;;;;;;5076386;28;20028;-89
2022/03/18 22:51:55;;;;;;;16.23;9.50;;;-2.60;96.50;;;;;;5075984;28;20032;-89
2022/03/18 22:54:20;;;;;;;16.90;9.07;;;-2.60;96.70;;;;;;5076513;28;20029;-89
2022/03/18 22:56:46;;;;;;;17.88;9.18;;;-2.70;96.90;;;;;;5076750;28;20081;-89
2022/03/18 22:59:15;;;;;;;17.90;9.48;;;-2.70;96.90;;;;;;5075623;28;20086;-89
2022/03/18 23:01:41;;;;;;;13.85;8.75;;;-2.70;96.70;;;;;;5075435;28;20021;-89
2022/03/18 23:04:08;;;;;;;18.27;9.60;;;-2.60;96.50;;;;;;5076414;28;20082;-89
2022/03/18 23:06:34;;;;;;;16.35;9.40;;;-2.70;96.60;;;;;;5075326;28;20025;-89
2022/03/18 23:09:00;;;;;;;13.23;8.32;;;-2.70;96.90;;;;;;5075570;28;20025;-88
2022/03/18 23:14:11;;;;;;;18.10;9.30;;;-2.80;96.50;;;;;;5077147;28;20028;-89
2022/03/18 23:16:36;;;;;;;17.25;9.00;;;-2.80;96.80;;;;;;5075924;28;20037;-89
2022/03/18 23:19:03;;;;;;;18.42;9.75;;;-2.80;97.10;;;;;;5075474;28;20542;-89
2022/03/18 23:21:29;;;;;;;17.35;9.95;;;-2.90;97.00;;;;;;5076305;28;20020;-89
2022/03/18 23:23:55;;;;;;;18.55;9.98;;;-2.80;97.20;;;;;;5075262;28;20047;-89
2022/03/18 23:26:20;;;;;;;17.65;10.40;;;-2.90;97.20;;;;;;5075073;28;20017;-89
2022/03/18 23:28:46;;;;;;;16.35;10.07;;;-2.90;97.20;;;;;;5075185;28;20087;-89
2022/03/18 23:31:12;;;;;;;17.40;10.63;;;-2.90;97.40;;;;;;5075171;28;20467;-89
2022/03/18 23:33:37;;;;;;;17.42;11.25;;;-3.00;97.50;;;;;;5075026;28;20029;-89
2022/03/18 23:36:04;;;;;;;19.98;11.50;;;-3.00;97.70;;;;;;5076623;28;20029;-89
2022/03/18 23:38:30;;;;;;;26.75;13.05;;;-3.00;97.30;;;;;;5076091;28;20035;-89
2022/03/18 23:40:57;;;;;;;24.65;14.02;;;-3.00;97.70;;;;;;5074991;28;20107;-89
2022/03/18 23:43:22;;;;;;;29.52;14.90;;;-3.10;97.50;;;;;;5074665;28;20380;-89
2022/03/18 23:45:48;;;;;;;53.80;17.20;;;-3.10;97.70;;;;;;5074644;28;20032;-89
2022/03/18 23:48:14;;;;;;;59.15;19.75;;;-3.10;97.60;;;;;;5074571;28;20059;-89
2022/03/18 23:50:40;;;;;;;69.80;21.38;;;-3.10;97.90;;;;;;5074738;28;20070;-90
2022/03/18 23:53:05;;;;;;;58.88;25.50;;;-3.10;98.70;;;;;;5075296;28;20405;-89
2022/03/18 23:55:31;;;;;;;30.33;16.10;;;-3.10;99.00;;;;;;5074446;28;20021;-89
2022/03/18 23:57:57;;;;;;;29.95;15.70;;;-3.10;99.80;;;;;;5075380;28;20032;-89
